MSC Opera — H3FV — position and weather

sailwx.info

Track history (hours):
 
Tides and Currents Weather Stations Pressure Air Temp Water Temp Dewpoint Dewpoint Depression Visibility Wind Speed Wind Dir Waves Ship Positions

MSC Opera

Operator: Mediterranean Shipping Company

Last reported at 2018-Jul-22 16:30 UTC. Time now 2018-Jul-22 16:35 UTC.
Position N 43°17' E 005°10'.

Length 274 m; draft 6.9 m.

Type: Ship. MMSI: 357627000.

Date/timePositionNaut miles runAvg speedWind from/ knotsBaromVisibWave heightAir tempDewpointWater temp
2018-Jul-22 16:30N 43°17' E 005°10'712.9
2018-Jul-22 15:59N 43°21' E 005°18'1 0.1
2018-Jul-22 06:28N 43°21' E 005°20'2 4.6
2018-Jul-22 06:00N 43°20' E 005°17'510.7
2018-Jul-22 05:30N 43°15' E 005°15'7614.1
2018-Jul-22 00:06N 43°09' E 006°60'216.8
2018-Jul-22 00:00N 43°09' E 007°02'816.6
2018-Jul-21 23:30N 43°13' E 007°12'816.3
2018-Jul-21 23:00N 43°17' E 007°22'5416.0
2018-Jul-21 19:39N 43°41' E 008°28'215.8
2018-Jul-21 19:30N 43°43' E 008°30'815.7
2018-Jul-21 19:01N 43°50' E 008°36'815.6
2018-Jul-21 18:30N 43°56' E 008°42'815.5
2018-Jul-21 18:00N 44°02' E 008°49'714.9
2018-Jul-21 17:30N 44°09' E 008°54'714.9
2018-Jul-21 17:00N 44°16' E 008°56'713.8
2018-Jul-21 16:30N 44°23' E 008°57'2 4.4
2018-Jul-21 16:00N 44°25' E 008°55'0 0.0
2018-Jul-21 15:29N 44°25' E 008°55'0 0.0
2018-Jul-21 14:59N 44°25' E 008°55'0 0.0
2018-Jul-21 14:29N 44°25' E 008°55'0 0.0
2018-Jul-21 13:59N 44°25' E 008°55'0 0.0
2018-Jul-21 13:29N 44°25' E 008°55'0 0.0
2018-Jul-21 12:58N 44°25' E 008°55'0 0.0
2018-Jul-21 12:28N 44°25' E 008°55'0 0.0
2018-Jul-21 11:58N 44°25' E 008°55'0 0.0
2018-Jul-21 11:28N 44°25' E 008°55'0 0.0
2018-Jul-21 11:00N 44°25' E 008°55'0 0.0
2018-Jul-21 10:30N 44°25' E 008°55'0 0.0
2018-Jul-21 10:00N 44°25' E 008°55'0 0.0
2018-Jul-21 09:30N 44°25' E 008°55'0 0.0
2018-Jul-21 09:01N 44°25' E 008°55'0 0.0
2018-Jul-21 08:31N 44°25' E 008°55'0 0.0
2018-Jul-21 08:01N 44°25' E 008°55'0 0.0
2018-Jul-21 07:30N 44°25' E 008°55'0 0.0
2018-Jul-21 07:01N 44°25' E 008°55'0 0.0
2018-Jul-21 06:31N 44°25' E 008°55'0 0.0
2018-Jul-21 06:00N 44°25' E 008°55'0 0.0
2018-Jul-21 05:31N 44°25' E 008°55'0 0.0
2018-Jul-21 05:01N 44°25' E 008°55'1 2.1
2018-Jul-21 04:30N 44°24' E 008°56'3 6.8
2018-Jul-21 04:01N 44°21' E 008°59'4 8.3
2018-Jul-21 03:31N 44°17' E 009°01'5 9.2
2018-Jul-21 03:00N 44°13' E 009°03'510.3
2018-Jul-21 02:30N 44°08' E 009°05'510.0
2018-Jul-21 02:01N 44°03' E 009°08'5 9.6
2018-Jul-21 01:31N 43°59' E 009°10'5 9.7
2018-Jul-21 01:00N 43°54' E 009°13'5 9.9
2018-Jul-21 00:31N 43°50' E 009°16'5 9.9
2018-Jul-21 00:01N 43°46' E 009°19'5 9.9
2018-Jul-20 23:30N 43°42' E 009°23'510.0
2018-Jul-20 23:01N 43°37' E 009°27'510.5
2018-Jul-20 22:30N 43°33' E 009°31'510.4
2018-Jul-20 22:01N 43°29' E 009°35'510.3
2018-Jul-20 21:31N 43°24' E 009°39'510.2
2018-Jul-20 21:00N 43°20' E 009°43'5 9.4
2018-Jul-20 20:30N 43°18' E 009°49'5 9.4
2018-Jul-20 20:00N 43°18' E 009°55'4 8.9
2018-Jul-20 19:31N 43°20' E 010°01'5 9.6
2018-Jul-20 19:01N 43°24' E 010°04'5 9.6
2018-Jul-20 18:31N 43°28' E 010°08'5 9.3
2018-Jul-20 18:01N 43°31' E 010°13'4 8.0
2018-Jul-20 17:31N 43°33' E 010°18'0 0.5
2018-Jul-20 16:58N 43°33' E 010°18'0 0.0
2018-Jul-20 16:27N 43°33' E 010°18'0 0.0
2018-Jul-20 16:00N 43°33' E 010°18'0 0.0
2018-Jul-20 15:30N 43°33' E 010°18'0 0.0
2018-Jul-20 15:00N 43°33' E 010°18'0 0.0
2018-Jul-20 14:30N 43°33' E 010°18'0 0.0
2018-Jul-20 13:59N 43°33' E 010°18'0 0.0
2018-Jul-20 13:29N 43°33' E 010°18'0 0.0
2018-Jul-20 12:56N 43°33' E 010°18'0 0.0
2018-Jul-20 12:29N 43°33' E 010°18'0 0.0
2018-Jul-20 11:58N 43°33' E 010°18'0 0.0
2018-Jul-20 11:22N 43°33' E 010°18'0 0.0
2018-Jul-20 10:58N 43°33' E 010°18'0 0.0
2018-Jul-20 10:28N 43°33' E 010°18'0 0.0
2018-Jul-20 09:58N 43°33' E 010°18'0 0.0
2018-Jul-20 09:30N 43°33' E 010°18'0 0.0
2018-Jul-20 08:57N 43°33' E 010°18'0 0.0
2018-Jul-20 08:30N 43°33' E 010°18'0 0.0
2018-Jul-20 07:57N 43°33' E 010°18'0 0.0
2018-Jul-20 07:30N 43°33' E 010°18'0 0.0
2018-Jul-20 06:59N 43°33' E 010°18'0 0.0
2018-Jul-20 06:29N 43°33' E 010°18'0 0.0
2018-Jul-20 05:59N 43°33' E 010°18'0 0.0
2018-Jul-20 05:30N 43°33' E 010°18'1 1.6
2018-Jul-20 05:01N 43°33' E 010°17'5 9.4
2018-Jul-20 04:30N 43°29' E 010°13'611.4
2018-Jul-20 04:00N 43°24' E 010°11'612.5
2018-Jul-20 03:30N 43°18' E 010°08'713.1
2018-Jul-20 03:00N 43°11' E 010°05'613.0
2018-Jul-20 02:30N 43°05' E 010°03'2112.9
2018-Jul-20 00:54N 42°46' E 009°54'813.7
2018-Jul-20 00:21N 42°38' E 009°54'513.6
2018-Jul-19 23:58N 42°33' E 009°53'713.6
2018-Jul-19 23:29N 42°26' E 009°52'813.5
2018-Jul-19 22:53N 42°18' E 009°52'513.4
2018-Jul-19 22:30N 42°13' E 009°51'713.5
2018-Jul-19 22:00N 42°06' E 009°50'713.4
2018-Jul-19 21:30N 41°60' E 009°50'713.4
2018-Jul-19 21:00N 41°53' E 009°49'3813.3
2018-Jul-19 18:07N 41°15' E 009°45'413.0
2018-Jul-19 17:47N 41°10' E 009°44'413.0
2018-Jul-19 17:30N 41°07' E 009°43'612.9
2018-Jul-19 17:00N 41°00' E 009°42'7 0.6
2018-Jul-19 04:38N 41°07' E 009°43'316.8
2018-Jul-19 04:29N 41°10' E 009°42'917.6
2018-Jul-19 03:59N 41°16' E 009°34'5516.4
2018-Jul-19 00:38N 41°12' E 008°21'217.4
2018-Jul-19 00:30N 41°12' E 008°18'2217.4
2018-Jul-18 23:13N 41°02' E 007°51'2317.7
2018-Jul-18 21:56N 40°51' E 007°25'717.8
2018-Jul-18 21:30N 40°47' E 007°16'21717.0
2018-Jul-18 08:44N 39°07' E 003°05'1016.3
2018-Jul-18 08:06N 39°04' E 002°53'516.1
2018-Jul-18 07:47N 39°03' E 002°46'516.1
2018-Jul-18 07:30N 39°03' E 002°40'916.3
2018-Jul-18 06:58N 39°01' E 002°29'3716.6
2018-Jul-18 04:44N 38°56' E 001°42'416.8
2018-Jul-18 04:29N 38°55' E 001°37'715.0
2018-Jul-18 04:00N 38°54' E 001°27'1 1.2
2018-Jul-18 03:20N 38°54' E 001°27'0 0.0
2018-Jul-18 02:22N 38°54' E 001°27'0 0.0
2018-Jul-18 01:10N 38°54' E 001°27'0 0.0
2018-Jul-18 00:46N 38°54' E 001°27'0 0.0
2018-Jul-18 00:27N 38°54' E 001°27'0 0.0
2018-Jul-18 00:00N 38°54' E 001°27'0 0.0
2018-Jul-17 21:26N 38°54' E 001°27'0 0.0
2018-Jul-17 20:56N 38°54' E 001°27'0 0.0
2018-Jul-17 19:10N 38°54' E 001°27'0 0.0
2018-Jul-17 18:49N 38°54' E 001°27'0 0.0
2018-Jul-17 18:28N 38°54' E 001°27'0 0.0
2018-Jul-17 17:55N 38°54' E 001°27'0 0.0
2018-Jul-17 17:30N 38°54' E 001°27'0 0.0
2018-Jul-17 17:00N 38°54' E 001°27'0 0.0
2018-Jul-17 16:30N 38°54' E 001°27'0 0.0
2018-Jul-17 16:00N 38°54' E 001°27'0 0.0
2018-Jul-17 15:30N 38°54' E 001°27'0 0.0
2018-Jul-17 14:59N 38°54' E 001°27'0 0.0
2018-Jul-17 14:29N 38°54' E 001°27'0 0.0
2018-Jul-17 13:59N 38°54' E 001°27'0 0.0
2018-Jul-17 13:26N 38°54' E 001°27'0 0.0
2018-Jul-17 12:55N 38°54' E 001°27'0 0.0
2018-Jul-17 12:28N 38°54' E 001°27'0 0.0
2018-Jul-17 11:58N 38°54' E 001°27'0 0.0
2018-Jul-17 11:28N 38°54' E 001°27'0 0.0
2018-Jul-17 10:58N 38°54' E 001°27'0 0.0
2018-Jul-17 10:30N 38°54' E 001°27'0 0.0
2018-Jul-17 10:00N 38°54' E 001°27'0 0.0
2018-Jul-17 09:30N 38°54' E 001°27'0 0.0
2018-Jul-17 08:57N 38°54' E 001°27'0 0.0
2018-Jul-17 08:27N 38°54' E 001°27'0 0.0
2018-Jul-17 07:59N 38°54' E 001°27'0 0.0
2018-Jul-17 07:29N 38°54' E 001°27'0 0.0
2018-Jul-17 06:59N 38°54' E 001°27'0 0.0
2018-Jul-17 06:30N 38°54' E 001°27'1 2.1
2018-Jul-17 06:00N 38°54' E 001°28'5 9.0
2018-Jul-17 05:29N 38°55' E 001°34'4 8.5
2018-Jul-17 05:00N 38°57' E 001°39'45 9.5
2018-Jul-17 00:17N 39°22' E 002°26'910.8
2018-Jul-16 23:29N 39°28' E 002°35'511.1
2018-Jul-16 23:00N 39°32' E 002°39'1 2.3
2018-Jul-16 22:29N 39°33' E 002°38'0 0.0
2018-Jul-16 21:59N 39°33' E 002°38'0 0.0
2018-Jul-16 21:29N 39°33' E 002°38'0 0.0
2018-Jul-16 20:59N 39°33' E 002°38'0 0.0
2018-Jul-16 20:28N 39°33' E 002°38'0 0.0
2018-Jul-16 19:58N 39°33' E 002°38'0 0.0
2018-Jul-16 19:28N 39°33' E 002°38'0 0.0
2018-Jul-16 18:58N 39°33' E 002°38'0 0.0
2018-Jul-16 18:28N 39°33' E 002°38'0 0.0
2018-Jul-16 18:00N 39°33' E 002°38'0 0.0
2018-Jul-16 17:30N 39°33' E 002°38'0 0.0
2018-Jul-16 17:00N 39°33' E 002°38'0 0.0
2018-Jul-16 16:30N 39°33' E 002°38'0 0.0
2018-Jul-16 15:59N 39°33' E 002°38'0 0.0
2018-Jul-16 15:29N 39°33' E 002°38'0 0.0
2018-Jul-16 14:59N 39°33' E 002°38'0 0.0
2018-Jul-16 14:29N 39°33' E 002°38'0 0.0
2018-Jul-16 13:59N 39°33' E 002°38'0 0.0
2018-Jul-16 13:28N 39°33' E 002°38'0 0.0
2018-Jul-16 12:58N 39°33' E 002°38'0 0.0
2018-Jul-16 12:30N 39°33' E 002°38'1 1.9
2018-Jul-16 12:00N 39°33' E 002°39'510.5
2018-Jul-16 11:30N 39°28' E 002°35'611.6
2018-Jul-16 11:00N 39°25' E 002°29'37 9.9
2018-Jul-16 07:15N 40°02' E 002°34'414.9
2018-Jul-16 07:00N 40°05' E 002°37'7715.5
2018-Jul-16 02:03N 41°11' E 003°29'115.8
2018-Jul-16 01:59N 41°12' E 003°30'2315.6
2018-Jul-16 00:30N 41°32' E 003°46'5915.2
2018-Jul-15 20:38N 42°22' E 004°27'215.2
2018-Jul-15 20:30N 42°24' E 004°28'815.3
2018-Jul-15 19:59N 42°30' E 004°34'3115.3
2018-Jul-15 17:56N 42°57' E 004°58'614.8
2018-Jul-15 17:30N 43°02' E 005°02'914.6
2018-Jul-15 16:53N 43°10' E 005°08'614.7
2018-Jul-15 16:30N 43°15' E 005°11'713.9
2018-Jul-15 15:59N 43°21' E 005°18'1 0.2
2018-Jul-15 06:24N 43°21' E 005°20'3 7.8
2018-Jul-15 06:00N 43°19' E 005°17'610.4
2018-Jul-15 05:25N 43°13' E 005°18'712.6
2018-Jul-15 04:52N 43°08' E 005°24'7114.0
2018-Jul-14 23:50N 43°09' E 007°01'516.0
2018-Jul-14 23:30N 43°11' E 007°08'815.9
2018-Jul-14 23:00N 43°15' E 007°18'1015.6
2018-Jul-14 22:22N 43°19' E 007°30'615.8
2018-Jul-14 22:00N 43°22' E 007°37'815.6
2018-Jul-14 21:30N 43°25' E 007°46'815.4
2018-Jul-14 21:00N 43°29' E 007°56'815.3
2018-Jul-14 20:30N 43°32' E 008°06'815.5
2018-Jul-14 20:00N 43°35' E 008°15'815.4
2018-Jul-14 19:30N 43°39' E 008°24'815.5
2018-Jul-14 19:00N 43°45' E 008°32'815.5
2018-Jul-14 18:30N 43°51' E 008°39'815.3
2018-Jul-14 18:00N 43°57' E 008°45'815.2
2018-Jul-14 17:30N 44°03' E 008°51'815.3
2018-Jul-14 17:00N 44°10' E 008°55'815.4
2018-Jul-14 16:30N 44°18' E 008°58'612.1
2018-Jul-14 16:01N 44°24' E 008°56'1 2.0
2018-Jul-14 15:29N 44°25' E 008°55'0 0.0
2018-Jul-14 14:59N 44°25' E 008°55'0 0.0
2018-Jul-14 14:29N 44°25' E 008°55'0 0.0
2018-Jul-14 13:29N 44°25' E 008°55'0 0.0
2018-Jul-14 12:58N 44°25' E 008°55'0 0.0
2018-Jul-14 12:25N 44°25' E 008°55'0 0.0
2018-Jul-14 11:58N 44°25' E 008°55'0 0.0
2018-Jul-14 11:28N 44°25' E 008°55'0 0.0
2018-Jul-14 10:58N 44°25' E 008°55'0 0.0
2018-Jul-14 10:30N 44°25' E 008°55'0 0.0
2018-Jul-14 10:00N 44°25' E 008°55'0 0.0
2018-Jul-14 09:24N 44°25' E 008°55'0 0.0
2018-Jul-14 09:00N 44°25' E 008°55'0 0.0
2018-Jul-14 08:29N 44°25' E 008°55'0 0.0
2018-Jul-14 07:59N 44°25' E 008°55'0 0.0
2018-Jul-14 07:29N 44°25' E 008°55'0 0.0
2018-Jul-14 06:59N 44°25' E 008°55'0 0.0
2018-Jul-14 06:26N 44°25' E 008°55'0 0.0
2018-Jul-14 05:52N 44°25' E 008°55'0 0.0
2018-Jul-14 05:28N 44°25' E 008°55'0 0.4
2018-Jul-14 05:01N 44°25' E 008°55'2 3.1
2018-Jul-14 04:31N 44°23' E 008°56'510.1
2018-Jul-14 04:01N 44°19' E 008°60'510.0
2018-Jul-14 03:31N 44°14' E 009°02'5 9.9
2018-Jul-14 03:00N 44°09' E 009°05'5 9.7
2018-Jul-14 02:30N 44°05' E 009°07'5 9.7
2018-Jul-14 02:00N 44°00' E 009°09'5 9.8
2018-Jul-14 01:30N 43°56' E 009°12'5 9.7
2018-Jul-14 01:01N 43°51' E 009°14'5 9.1
2018-Jul-14 00:31N 43°48' E 009°18'5 9.0
2018-Jul-14 00:00N 43°44' E 009°21'4 8.9
2018-Jul-13 23:30N 43°40' E 009°25'5 8.9
2018-Jul-13 23:00N 43°36' E 009°28'4 8.9
2018-Jul-13 22:31N 43°33' E 009°32'5 9.0
2018-Jul-13 22:00N 43°29' E 009°35'4 8.9
2018-Jul-13 21:30N 43°25' E 009°38'4 8.8
2018-Jul-13 21:01N 43°22' E 009°42'4 8.4
2018-Jul-13 20:30N 43°19' E 009°46'4 8.4
2018-Jul-13 20:00N 43°18' E 009°52'4 8.5
2018-Jul-13 19:30N 43°19' E 009°58'4 8.7
2018-Jul-13 19:01N 43°22' E 010°03'5 9.1
2018-Jul-13 18:30N 43°25' E 010°06'5 9.4
2018-Jul-13 18:00N 43°29' E 010°10'5 9.3
2018-Jul-13 17:31N 43°32' E 010°15'2 4.2
2018-Jul-13 17:01N 43°33' E 010°18'0 0.0
2018-Jul-13 16:29N 43°33' E 010°18'0 0.0
2018-Jul-13 15:59N 43°33' E 010°18'0 0.0
2018-Jul-13 15:26N 43°33' E 010°18'0 0.0
2018-Jul-13 14:59N 43°33' E 010°18'0 0.0
2018-Jul-13 13:55N 43°33' E 010°18'0 0.0
2018-Jul-13 13:28N 43°33' E 010°18'0 0.0
2018-Jul-13 12:58N 43°33' E 010°18'0 0.0
2018-Jul-13 12:28N 43°33' E 010°18'0 0.0
2018-Jul-13 12:00N 43°33' E 010°18'0 0.0
2018-Jul-13 11:24N 43°33' E 010°18'0 0.0
2018-Jul-13 10:54N 43°33' E 010°18'0 0.0
2018-Jul-13 10:27N 43°33' E 010°18'0 0.0
2018-Jul-13 10:00N 43°33' E 010°18'0 0.0
2018-Jul-13 09:29N 43°33' E 010°18'0 0.0
2018-Jul-13 08:56N 43°33' E 010°18'0 0.0
2018-Jul-13 08:29N 43°33' E 010°18'0 0.0
2018-Jul-13 07:59N 43°33' E 010°18'0 0.0
2018-Jul-13 07:28N 43°33' E 010°18'0 0.0
2018-Jul-13 06:52N 43°33' E 010°18'0 0.0
2018-Jul-13 06:28N 43°33' E 010°18'0 0.0
2018-Jul-13 05:58N 43°33' E 010°18'0 0.0
2018-Jul-13 05:28N 43°33' E 010°18'1 2.2
2018-Jul-13 05:00N 43°32' E 010°17'510.1
2018-Jul-13 04:30N 43°28' E 010°13'612.4
2018-Jul-13 04:00N 43°22' E 010°10'612.6
2018-Jul-13 03:30N 43°16' E 010°08'712.8
2018-Jul-13 02:59N 43°10' E 010°05'612.9
2018-Jul-13 02:30N 43°04' E 010°03'612.9
2018-Jul-13 02:00N 42°58' E 010°01'712.9
2018-Jul-13 01:27N 42°51' E 009°57'612.9
2018-Jul-13 00:58N 42°45' E 009°54'1013.1
2018-Jul-13 00:10N 42°35' E 009°53'213.2
2018-Jul-13 00:00N 42°33' E 009°53'713.3
2018-Jul-12 23:30N 42°26' E 009°52'713.1
2018-Jul-12 23:00N 42°19' E 009°52'713.1
2018-Jul-12 22:30N 42°13' E 009°51'612.9
2018-Jul-12 22:00N 42°06' E 009°50'3513.4
2018-Jul-12 19:25N 41°32' E 009°47'613.5
2018-Jul-12 19:00N 41°26' E 009°47'714.0
2018-Jul-12 18:30N 41°19' E 009°46'  
Track history (hours):
 
Tides and Currents Weather Stations Pressure Air Temp Water Temp Dewpoint Dewpoint Depression Visibility Wind Speed Wind Dir Waves Ship Positions

MSC Opera

Operator: Mediterranean Shipping Company

Last reported at 2018-Jul-22 16:30 UTC. Time now 2018-Jul-22 16:35 UTC.
Position N 43°17' E 005°10'.

Length 274 m; draft 6.9 m.

Type: Ship. MMSI: 357627000.

Date/timePositionNaut miles runAvg speedWind from/ knotsBaromVisibWave heightAir tempDewpointWater temp
2018-Jul-22 16:30N 43°17' E 005°10'712.9
2018-Jul-22 15:59N 43°21' E 005°18'1 0.1
2018-Jul-22 06:28N 43°21' E 005°20'2 4.6
2018-Jul-22 06:00N 43°20' E 005°17'510.7
2018-Jul-22 05:30N 43°15' E 005°15'7614.1
2018-Jul-22 00:06N 43°09' E 006°60'216.8
2018-Jul-22 00:00N 43°09' E 007°02'816.6
2018-Jul-21 23:30N 43°13' E 007°12'816.3
2018-Jul-21 23:00N 43°17' E 007°22'5416.0
2018-Jul-21 19:39N 43°41' E 008°28'215.8
2018-Jul-21 19:30N 43°43' E 008°30'815.7
2018-Jul-21 19:01N 43°50' E 008°36'815.6
2018-Jul-21 18:30N 43°56' E 008°42'815.5
2018-Jul-21 18:00N 44°02' E 008°49'714.9
2018-Jul-21 17:30N 44°09' E 008°54'714.9
2018-Jul-21 17:00N 44°16' E 008°56'713.8
2018-Jul-21 16:30N 44°23' E 008°57'2 4.4
2018-Jul-21 16:00N 44°25' E 008°55'0 0.0
2018-Jul-21 15:29N 44°25' E 008°55'0 0.0
2018-Jul-21 14:59N 44°25' E 008°55'0 0.0
2018-Jul-21 14:29N 44°25' E 008°55'0 0.0
2018-Jul-21 13:59N 44°25' E 008°55'0 0.0
2018-Jul-21 13:29N 44°25' E 008°55'0 0.0
2018-Jul-21 12:58N 44°25' E 008°55'0 0.0
2018-Jul-21 12:28N 44°25' E 008°55'0 0.0
2018-Jul-21 11:58N 44°25' E 008°55'0 0.0
2018-Jul-21 11:28N 44°25' E 008°55'0 0.0
2018-Jul-21 11:00N 44°25' E 008°55'0 0.0
2018-Jul-21 10:30N 44°25' E 008°55'0 0.0
2018-Jul-21 10:00N 44°25' E 008°55'0 0.0
2018-Jul-21 09:30N 44°25' E 008°55'0 0.0
2018-Jul-21 09:01N 44°25' E 008°55'0 0.0
2018-Jul-21 08:31N 44°25' E 008°55'0 0.0
2018-Jul-21 08:01N 44°25' E 008°55'0 0.0
2018-Jul-21 07:30N 44°25' E 008°55'0 0.0
2018-Jul-21 07:01N 44°25' E 008°55'0 0.0
2018-Jul-21 06:31N 44°25' E 008°55'0 0.0
2018-Jul-21 06:00N 44°25' E 008°55'0 0.0
2018-Jul-21 05:31N 44°25' E 008°55'0 0.0
2018-Jul-21 05:01N 44°25' E 008°55'1 2.1
2018-Jul-21 04:30N 44°24' E 008°56'3 6.8
2018-Jul-21 04:01N 44°21' E 008°59'4 8.3
2018-Jul-21 03:31N 44°17' E 009°01'5 9.2
2018-Jul-21 03:00N 44°13' E 009°03'510.3
2018-Jul-21 02:30N 44°08' E 009°05'510.0
2018-Jul-21 02:01N 44°03' E 009°08'5 9.6
2018-Jul-21 01:31N 43°59' E 009°10'5 9.7
2018-Jul-21 01:00N 43°54' E 009°13'5 9.9
2018-Jul-21 00:31N 43°50' E 009°16'5 9.9
2018-Jul-21 00:01N 43°46' E 009°19'5 9.9
2018-Jul-20 23:30N 43°42' E 009°23'510.0
2018-Jul-20 23:01N 43°37' E 009°27'510.5
2018-Jul-20 22:30N 43°33' E 009°31'510.4
2018-Jul-20 22:01N 43°29' E 009°35'510.3
2018-Jul-20 21:31N 43°24' E 009°39'510.2
2018-Jul-20 21:00N 43°20' E 009°43'5 9.4
2018-Jul-20 20:30N 43°18' E 009°49'5 9.4
2018-Jul-20 20:00N 43°18' E 009°55'4 8.9
2018-Jul-20 19:31N 43°20' E 010°01'5 9.6
2018-Jul-20 19:01N 43°24' E 010°04'5 9.6
2018-Jul-20 18:31N 43°28' E 010°08'5 9.3
2018-Jul-20 18:01N 43°31' E 010°13'4 8.0
2018-Jul-20 17:31N 43°33' E 010°18'0 0.5
2018-Jul-20 16:58N 43°33' E 010°18'0 0.0
2018-Jul-20 16:27N 43°33' E 010°18'0 0.0
2018-Jul-20 16:00N 43°33' E 010°18'0 0.0
2018-Jul-20 15:30N 43°33' E 010°18'0 0.0
2018-Jul-20 15:00N 43°33' E 010°18'0 0.0
2018-Jul-20 14:30N 43°33' E 010°18'0 0.0
2018-Jul-20 13:59N 43°33' E 010°18'0 0.0
2018-Jul-20 13:29N 43°33' E 010°18'0 0.0
2018-Jul-20 12:56N 43°33' E 010°18'0 0.0
2018-Jul-20 12:29N 43°33' E 010°18'0 0.0
2018-Jul-20 11:58N 43°33' E 010°18'0 0.0
2018-Jul-20 11:22N 43°33' E 010°18'0 0.0
2018-Jul-20 10:58N 43°33' E 010°18'0 0.0
2018-Jul-20 10:28N 43°33' E 010°18'0 0.0
2018-Jul-20 09:58N 43°33' E 010°18'0 0.0
2018-Jul-20 09:30N 43°33' E 010°18'0 0.0
2018-Jul-20 08:57N 43°33' E 010°18'0 0.0
2018-Jul-20 08:30N 43°33' E 010°18'0 0.0
2018-Jul-20 07:57N 43°33' E 010°18'0 0.0
2018-Jul-20 07:30N 43°33' E 010°18'0 0.0
2018-Jul-20 06:59N 43°33' E 010°18'0 0.0
2018-Jul-20 06:29N 43°33' E 010°18'0 0.0
2018-Jul-20 05:59N 43°33' E 010°18'0 0.0
2018-Jul-20 05:30N 43°33' E 010°18'1 1.6
2018-Jul-20 05:01N 43°33' E 010°17'5 9.4
2018-Jul-20 04:30N 43°29' E 010°13'611.4
2018-Jul-20 04:00N 43°24' E 010°11'612.5
2018-Jul-20 03:30N 43°18' E 010°08'713.1
2018-Jul-20 03:00N 43°11' E 010°05'613.0
2018-Jul-20 02:30N 43°05' E 010°03'2112.9
2018-Jul-20 00:54N 42°46' E 009°54'813.7
2018-Jul-20 00:21N 42°38' E 009°54'513.6
2018-Jul-19 23:58N 42°33' E 009°53'713.6
2018-Jul-19 23:29N 42°26' E 009°52'813.5
2018-Jul-19 22:53N 42°18' E 009°52'513.4
2018-Jul-19 22:30N 42°13' E 009°51'713.5
2018-Jul-19 22:00N 42°06' E 009°50'713.4
2018-Jul-19 21:30N 41°60' E 009°50'713.4
2018-Jul-19 21:00N 41°53' E 009°49'3813.3
2018-Jul-19 18:07N 41°15' E 009°45'413.0
2018-Jul-19 17:47N 41°10' E 009°44'413.0
2018-Jul-19 17:30N 41°07' E 009°43'612.9
2018-Jul-19 17:00N 41°00' E 009°42'7 0.6
2018-Jul-19 04:38N 41°07' E 009°43'316.8
2018-Jul-19 04:29N 41°10' E 009°42'917.6
2018-Jul-19 03:59N 41°16' E 009°34'5516.4
2018-Jul-19 00:38N 41°12' E 008°21'217.4
2018-Jul-19 00:30N 41°12' E 008°18'2217.4
2018-Jul-18 23:13N 41°02' E 007°51'2317.7
2018-Jul-18 21:56N 40°51' E 007°25'717.8
2018-Jul-18 21:30N 40°47' E 007°16'21717.0
2018-Jul-18 08:44N 39°07' E 003°05'1016.3
2018-Jul-18 08:06N 39°04' E 002°53'516.1
2018-Jul-18 07:47N 39°03' E 002°46'516.1
2018-Jul-18 07:30N 39°03' E 002°40'916.3
2018-Jul-18 06:58N 39°01' E 002°29'3716.6
2018-Jul-18 04:44N 38°56' E 001°42'416.8
2018-Jul-18 04:29N 38°55' E 001°37'715.0
2018-Jul-18 04:00N 38°54' E 001°27'1 1.2
2018-Jul-18 03:20N 38°54' E 001°27'0 0.0
2018-Jul-18 02:22N 38°54' E 001°27'0 0.0
2018-Jul-18 01:10N 38°54' E 001°27'0 0.0
2018-Jul-18 00:46N 38°54' E 001°27'0 0.0
2018-Jul-18 00:27N 38°54' E 001°27'0 0.0
2018-Jul-18 00:00N 38°54' E 001°27'0 0.0
2018-Jul-17 21:26N 38°54' E 001°27'0 0.0
2018-Jul-17 20:56N 38°54' E 001°27'0 0.0
2018-Jul-17 19:10N 38°54' E 001°27'0 0.0
2018-Jul-17 18:49N 38°54' E 001°27'0 0.0
2018-Jul-17 18:28N 38°54' E 001°27'0 0.0
2018-Jul-17 17:55N 38°54' E 001°27'0 0.0
2018-Jul-17 17:30N 38°54' E 001°27'0 0.0
2018-Jul-17 17:00N 38°54' E 001°27'0 0.0
2018-Jul-17 16:30N 38°54' E 001°27'0 0.0
2018-Jul-17 16:00N 38°54' E 001°27'0 0.0
2018-Jul-17 15:30N 38°54' E 001°27'0 0.0
2018-Jul-17 14:59N 38°54' E 001°27'0 0.0
2018-Jul-17 14:29N 38°54' E 001°27'0 0.0
2018-Jul-17 13:59N 38°54' E 001°27'0 0.0
2018-Jul-17 13:26N 38°54' E 001°27'0 0.0
2018-Jul-17 12:55N 38°54' E 001°27'0 0.0
2018-Jul-17 12:28N 38°54' E 001°27'0 0.0
2018-Jul-17 11:58N 38°54' E 001°27'0 0.0
2018-Jul-17 11:28N 38°54' E 001°27'0 0.0
2018-Jul-17 10:58N 38°54' E 001°27'0 0.0
2018-Jul-17 10:30N 38°54' E 001°27'0 0.0
2018-Jul-17 10:00N 38°54' E 001°27'0 0.0
2018-Jul-17 09:30N 38°54' E 001°27'0 0.0
2018-Jul-17 08:57N 38°54' E 001°27'0 0.0
2018-Jul-17 08:27N 38°54' E 001°27'0 0.0
2018-Jul-17 07:59N 38°54' E 001°27'0 0.0
2018-Jul-17 07:29N 38°54' E 001°27'0 0.0
2018-Jul-17 06:59N 38°54' E 001°27'0 0.0
2018-Jul-17 06:30N 38°54' E 001°27'1 2.1
2018-Jul-17 06:00N 38°54' E 001°28'5 9.0
2018-Jul-17 05:29N 38°55' E 001°34'4 8.5
2018-Jul-17 05:00N 38°57' E 001°39'45 9.5
2018-Jul-17 00:17N 39°22' E 002°26'910.8
2018-Jul-16 23:29N 39°28' E 002°35'511.1
2018-Jul-16 23:00N 39°32' E 002°39'1 2.3
2018-Jul-16 22:29N 39°33' E 002°38'0 0.0
2018-Jul-16 21:59N 39°33' E 002°38'0 0.0
2018-Jul-16 21:29N 39°33' E 002°38'0 0.0
2018-Jul-16 20:59N 39°33' E 002°38'0 0.0
2018-Jul-16 20:28N 39°33' E 002°38'0 0.0
2018-Jul-16 19:58N 39°33' E 002°38'0 0.0
2018-Jul-16 19:28N 39°33' E 002°38'0 0.0
2018-Jul-16 18:58N 39°33' E 002°38'0 0.0
2018-Jul-16 18:28N 39°33' E 002°38'0 0.0
2018-Jul-16 18:00N 39°33' E 002°38'0 0.0
2018-Jul-16 17:30N 39°33' E 002°38'0 0.0
2018-Jul-16 17:00N 39°33' E 002°38'0 0.0
2018-Jul-16 16:30N 39°33' E 002°38'0 0.0
2018-Jul-16 15:59N 39°33' E 002°38'0 0.0
2018-Jul-16 15:29N 39°33' E 002°38'0 0.0
2018-Jul-16 14:59N 39°33' E 002°38'0 0.0
2018-Jul-16 14:29N 39°33' E 002°38'0 0.0
2018-Jul-16 13:59N 39°33' E 002°38'0 0.0
2018-Jul-16 13:28N 39°33' E 002°38'0 0.0
2018-Jul-16 12:58N 39°33' E 002°38'0 0.0
2018-Jul-16 12:30N 39°33' E 002°38'1 1.9
2018-Jul-16 12:00N 39°33' E 002°39'510.5
2018-Jul-16 11:30N 39°28' E 002°35'611.6
2018-Jul-16 11:00N 39°25' E 002°29'37 9.9
2018-Jul-16 07:15N 40°02' E 002°34'414.9
2018-Jul-16 07:00N 40°05' E 002°37'7715.5
2018-Jul-16 02:03N 41°11' E 003°29'115.8
2018-Jul-16 01:59N 41°12' E 003°30'2315.6
2018-Jul-16 00:30N 41°32' E 003°46'5915.2
2018-Jul-15 20:38N 42°22' E 004°27'215.2
2018-Jul-15 20:30N 42°24' E 004°28'815.3
2018-Jul-15 19:59N 42°30' E 004°34'3115.3
2018-Jul-15 17:56N 42°57' E 004°58'614.8
2018-Jul-15 17:30N 43°02' E 005°02'914.6
2018-Jul-15 16:53N 43°10' E 005°08'614.7
2018-Jul-15 16:30N 43°15' E 005°11'713.9
2018-Jul-15 15:59N 43°21' E 005°18'1 0.2
2018-Jul-15 06:24N 43°21' E 005°20'3 7.8
2018-Jul-15 06:00N 43°19' E 005°17'610.4
2018-Jul-15 05:25N 43°13' E 005°18'712.6
2018-Jul-15 04:52N 43°08' E 005°24'7114.0
2018-Jul-14 23:50N 43°09' E 007°01'516.0
2018-Jul-14 23:30N 43°11' E 007°08'815.9
2018-Jul-14 23:00N 43°15' E 007°18'1015.6
2018-Jul-14 22:22N 43°19' E 007°30'615.8
2018-Jul-14 22:00N 43°22' E 007°37'815.6
2018-Jul-14 21:30N 43°25' E 007°46'815.4
2018-Jul-14 21:00N 43°29' E 007°56'815.3
2018-Jul-14 20:30N 43°32' E 008°06'815.5
2018-Jul-14 20:00N 43°35' E 008°15'815.4
2018-Jul-14 19:30N 43°39' E 008°24'815.5
2018-Jul-14 19:00N 43°45' E 008°32'815.5
2018-Jul-14 18:30N 43°51' E 008°39'815.3
2018-Jul-14 18:00N 43°57' E 008°45'815.2
2018-Jul-14 17:30N 44°03' E 008°51'815.3
2018-Jul-14 17:00N 44°10' E 008°55'815.4
2018-Jul-14 16:30N 44°18' E 008°58'612.1
2018-Jul-14 16:01N 44°24' E 008°56'1 2.0
2018-Jul-14 15:29N 44°25' E 008°55'0 0.0
2018-Jul-14 14:59N 44°25' E 008°55'0 0.0
2018-Jul-14 14:29N 44°25' E 008°55'0 0.0
2018-Jul-14 13:29N 44°25' E 008°55'0 0.0
2018-Jul-14 12:58N 44°25' E 008°55'0 0.0
2018-Jul-14 12:25N 44°25' E 008°55'0 0.0
2018-Jul-14 11:58N 44°25' E 008°55'0 0.0
2018-Jul-14 11:28N 44°25' E 008°55'0 0.0
2018-Jul-14 10:58N 44°25' E 008°55'0 0.0
2018-Jul-14 10:30N 44°25' E 008°55'0 0.0
2018-Jul-14 10:00N 44°25' E 008°55'0 0.0
2018-Jul-14 09:24N 44°25' E 008°55'0 0.0
2018-Jul-14 09:00N 44°25' E 008°55'0 0.0
2018-Jul-14 08:29N 44°25' E 008°55'0 0.0
2018-Jul-14 07:59N 44°25' E 008°55'0 0.0
2018-Jul-14 07:29N 44°25' E 008°55'0 0.0
2018-Jul-14 06:59N 44°25' E 008°55'0 0.0
2018-Jul-14 06:26N 44°25' E 008°55'0 0.0
2018-Jul-14 05:52N 44°25' E 008°55'0 0.0
2018-Jul-14 05:28N 44°25' E 008°55'0 0.4
2018-Jul-14 05:01N 44°25' E 008°55'2 3.1
2018-Jul-14 04:31N 44°23' E 008°56'510.1
2018-Jul-14 04:01N 44°19' E 008°60'510.0
2018-Jul-14 03:31N 44°14' E 009°02'5 9.9
2018-Jul-14 03:00N 44°09' E 009°05'5 9.7
2018-Jul-14 02:30N 44°05' E 009°07'5 9.7
2018-Jul-14 02:00N 44°00' E 009°09'5 9.8
2018-Jul-14 01:30N 43°56' E 009°12'5 9.7
2018-Jul-14 01:01N 43°51' E 009°14'5 9.1
2018-Jul-14 00:31N 43°48' E 009°18'5 9.0
2018-Jul-14 00:00N 43°44' E 009°21'4 8.9
2018-Jul-13 23:30N 43°40' E 009°25'5 8.9
2018-Jul-13 23:00N 43°36' E 009°28'4 8.9
2018-Jul-13 22:31N 43°33' E 009°32'5 9.0
2018-Jul-13 22:00N 43°29' E 009°35'4 8.9
2018-Jul-13 21:30N 43°25' E 009°38'4 8.8
2018-Jul-13 21:01N 43°22' E 009°42'4 8.4
2018-Jul-13 20:30N 43°19' E 009°46'4 8.4
2018-Jul-13 20:00N 43°18' E 009°52'4 8.5
2018-Jul-13 19:30N 43°19' E 009°58'4 8.7
2018-Jul-13 19:01N 43°22' E 010°03'5 9.1
2018-Jul-13 18:30N 43°25' E 010°06'5 9.4
2018-Jul-13 18:00N 43°29' E 010°10'5 9.3
2018-Jul-13 17:31N 43°32' E 010°15'2 4.2
2018-Jul-13 17:01N 43°33' E 010°18'0 0.0
2018-Jul-13 16:29N 43°33' E 010°18'0 0.0
2018-Jul-13 15:59N 43°33' E 010°18'0 0.0
2018-Jul-13 15:26N 43°33' E 010°18'0 0.0
2018-Jul-13 14:59N 43°33' E 010°18'0 0.0
2018-Jul-13 13:55N 43°33' E 010°18'0 0.0
2018-Jul-13 13:28N 43°33' E 010°18'0 0.0
2018-Jul-13 12:58N 43°33' E 010°18'0 0.0
2018-Jul-13 12:28N 43°33' E 010°18'0 0.0
2018-Jul-13 12:00N 43°33' E 010°18'0 0.0
2018-Jul-13 11:24N 43°33' E 010°18'0 0.0
2018-Jul-13 10:54N 43°33' E 010°18'0 0.0
2018-Jul-13 10:27N 43°33' E 010°18'0 0.0
2018-Jul-13 10:00N 43°33' E 010°18'0 0.0
2018-Jul-13 09:29N 43°33' E 010°18'0 0.0
2018-Jul-13 08:56N 43°33' E 010°18'0 0.0
2018-Jul-13 08:29N 43°33' E 010°18'0 0.0
2018-Jul-13 07:59N 43°33' E 010°18'0 0.0
2018-Jul-13 07:28N 43°33' E 010°18'0 0.0
2018-Jul-13 06:52N 43°33' E 010°18'0 0.0
2018-Jul-13 06:28N 43°33' E 010°18'0 0.0
2018-Jul-13 05:58N 43°33' E 010°18'0 0.0
2018-Jul-13 05:28N 43°33' E 010°18'1 2.2
2018-Jul-13 05:00N 43°32' E 010°17'510.1
2018-Jul-13 04:30N 43°28' E 010°13'612.4
2018-Jul-13 04:00N 43°22' E 010°10'612.6
2018-Jul-13 03:30N 43°16' E 010°08'712.8
2018-Jul-13 02:59N 43°10' E 010°05'612.9
2018-Jul-13 02:30N 43°04' E 010°03'612.9
2018-Jul-13 02:00N 42°58' E 010°01'712.9
2018-Jul-13 01:27N 42°51' E 009°57'612.9
2018-Jul-13 00:58N 42°45' E 009°54'1013.1
2018-Jul-13 00:10N 42°35' E 009°53'213.2
2018-Jul-13 00:00N 42°33' E 009°53'713.3
2018-Jul-12 23:30N 42°26' E 009°52'713.1
2018-Jul-12 23:00N 42°19' E 009°52'713.1
2018-Jul-12 22:30N 42°13' E 009°51'612.9
2018-Jul-12 22:00N 42°06' E 009°50'3513.4
2018-Jul-12 19:25N 41°32' E 009°47'613.5
2018-Jul-12 19:00N 41°26' E 009°47'714.0
2018-Jul-12 18:30N 41°19' E 009°46'  

Dump ship's entire track history